Time;durP1;ratioP1;P1;durP2;ratioP2;P2;SDS_P1;SDS_P2;PMS_P1;PMS_P2;Temp;Humidity;BMP_temperature;BMP_pressure;BME280_temperature;BME280_humidity;BME280_pressure;Samples;Min_cycle;Max_cycle;Signal;HPM_P1;HPM_P2
2022/08/09 00:00:08;;;;;;;18.77;10.82;;;;;;;;;;3372697;42;20105;-60
2022/08/09 00:02:34;;;;;;;21.17;11.30;;;;;;;;;;3382731;42;20587;-61
2022/08/09 00:05:00;;;;;;;22.77;10.53;;;;;;;;;;3382176;42;20098;-59
2022/08/09 00:07:26;;;;;;;19.65;10.70;;;;;;;;;;3375310;42;20155;-60
2022/08/09 00:09:52;;;;;;;20.17;11.88;;;;;;;;;;3374269;42;20169;-60
2022/08/09 00:12:18;;;;;;;24.20;11.32;;;;;;;;;;3373678;42;20103;-61
2022/08/09 00:14:44;;;;;;;20.90;11.57;;;;;;;;;;3380865;42;20596;-61
2022/08/09 00:17:10;;;;;;;19.00;10.53;;;;;;;;;;3375364;42;20108;-59
2022/08/09 00:19:37;;;;;;;25.52;11.63;;;;;;;;;;3374884;42;20099;-58
2022/08/09 00:22:03;;;;;;;18.92;10.70;;;;;;;;;;3375092;42;20095;-60
2022/08/09 00:24:30;;;;;;;19.27;10.63;;;;;;;;;;3375313;42;20516;-61
2022/08/09 00:26:57;;;;;;;24.67;11.45;;;;;;;;;;3375516;42;20576;-61
2022/08/09 00:29:26;;;;;;;22.00;11.20;;;;;;;;;;3374979;42;20611;-59
2022/08/09 00:31:53;;;;;;;20.90;10.68;;;;;;;;;;3374054;42;20614;-60
2022/08/09 00:34:19;;;;;;;19.13;10.75;;;;;;;;;;3367693;42;20099;-60
2022/08/09 00:36:45;;;;;;;20.00;10.82;;;;;;;;;;3375284;42;20095;-60
2022/08/09 00:39:11;;;;;;;22.20;11.10;;;;;;;;;;3382269;42;20097;-60
2022/08/09 00:41:38;;;;;;;19.17;10.57;;;;;;;;;;3373498;42;20083;-61
2022/08/09 00:44:04;;;;;;;21.98;11.70;;;;;;;;;;3367856;42;20110;-59
2022/08/09 00:46:29;;;;;;;24.33;11.38;;;;;;;;;;3381366;42;20099;-63
2022/08/09 00:48:55;;;;;;;21.85;11.25;;;;;;;;;;3375257;42;20106;-60
2022/08/09 00:51:21;;;;;;;19.40;10.73;;;;;;;;;;3373790;42;20583;-60
2022/08/09 00:53:47;;;;;;;21.97;11.10;;;;;;;;;;3375283;42;20188;-61
2022/08/09 00:56:14;;;;;;;21.27;10.63;;;;;;;;;;3367197;42;20129;-60
2022/08/09 00:58:40;;;;;;;23.45;11.50;;;;;;;;;;3374854;42;20170;-58
2022/08/09 01:01:18;;;;;;;20.40;11.05;;;;;;;;;;3367339;42;20150;-60
2022/08/09 01:04:05;;;;;;;21.85;10.73;;;;;;;;;;3371536;42;20091;-59
2022/08/09 01:06:38;;;;;;;19.83;11.03;;;;;;;;;;3378700;42;20082;-59
2022/08/09 01:09:26;;;;;;;22.02;11.20;;;;;;;;;;3382665;42;20570;-58
2022/08/09 01:12:47;;;;;;;22.58;11.07;;;;;;;;;;3373381;42;20145;-60
2022/08/09 01:15:16;;;;;;;20.10;10.20;;;;;;;;;;3352570;42;20098;-60
2022/08/09 01:17:57;;;;;;;21.75;10.88;;;;;;;;;;3367480;42;20524;-61
2022/08/09 01:20:42;;;;;;;20.70;11.13;;;;;;;;;;3368159;42;20118;-59
2022/08/09 01:23:26;;;;;;;22.73;11.23;;;;;;;;;;3367095;42;20099;-59
2022/08/09 01:26:15;;;;;;;21.25;11.40;;;;;;;;;;3375408;42;20106;-60
2022/08/09 01:28:43;;;;;;;22.90;11.57;;;;;;;;;;3358956;42;20556;-59
2022/08/09 01:31:10;;;;;;;24.17;10.77;;;;;;;;;;3358816;42;20105;-60
2022/08/09 01:33:37;;;;;;;21.53;11.40;;;;;;;;;;3367443;42;20118;-60
2022/08/09 01:36:08;;;;;;;22.98;11.63;;;;;;;;;;3369120;42;20623;-60
2022/08/09 01:38:35;;;;;;;25.08;11.27;;;;;;;;;;3375582;42;20102;-59
2022/08/09 01:41:03;;;;;;;24.85;11.38;;;;;;;;;;3375178;42;20105;-60
2022/08/09 01:43:31;;;;;;;19.40;10.60;;;;;;;;;;3374723;42;20555;-59
2022/08/09 01:45:57;;;;;;;22.73;11.50;;;;;;;;;;3370100;42;20095;-61
2022/08/09 01:48:23;;;;;;;21.50;11.40;;;;;;;;;;3373814;42;20091;-60
2022/08/09 01:50:51;;;;;;;20.38;11.45;;;;;;;;;;3359168;42;20099;-59
2022/08/09 01:53:22;;;;;;;21.55;11.27;;;;;;;;;;3371420;42;20540;-59
2022/08/09 01:55:49;;;;;;;23.90;10.95;;;;;;;;;;3372432;42;20083;-58
2022/08/09 01:58:15;;;;;;;19.47;11.00;;;;;;;;;;3368117;42;20101;-59
2022/08/09 02:00:42;;;;;;;19.65;10.98;;;;;;;;;;3367676;42;20111;-59
2022/08/09 02:03:08;;;;;;;19.13;11.30;;;;;;;;;;3360216;42;20099;-59
2022/08/09 02:05:34;;;;;;;19.40;11.27;;;;;;;;;;3365903;42;20098;-59
2022/08/09 02:08:02;;;;;;;18.80;10.88;;;;;;;;;;3369189;42;20553;-59
2022/08/09 02:10:30;;;;;;;20.40;10.87;;;;;;;;;;3368996;42;20160;-59
2022/08/09 02:12:57;;;;;;;20.85;10.77;;;;;;;;;;3374975;42;20099;-58
2022/08/09 02:15:23;;;;;;;23.30;10.38;;;;;;;;;;3368037;42;20098;-59
2022/08/09 02:17:49;;;;;;;20.92;10.77;;;;;;;;;;3374722;42;20111;-59
2022/08/09 02:20:15;;;;;;;19.83;10.57;;;;;;;;;;3374887;42;20595;-61
2022/08/09 02:22:58;;;;;;;19.83;10.67;;;;;;;;;;3360571;42;20099;-58
2022/08/09 02:25:26;;;;;;;21.55;10.88;;;;;;;;;;3376251;42;20083;-60
2022/08/09 02:27:58;;;;;;;19.42;10.63;;;;;;;;;;3361874;42;20142;-59
2022/08/09 02:30:25;;;;;;;19.58;10.48;;;;;;;;;;3369510;42;20079;-61
2022/08/09 02:32:51;;;;;;;18.80;10.38;;;;;;;;;;3361497;42;20169;-59
2022/08/09 02:35:22;;;;;;;20.20;10.60;;;;;;;;;;3368863;42;20095;-60
2022/08/09 02:37:50;;;;;;;19.85;10.77;;;;;;;;;;3369250;42;20099;-62
2022/08/09 02:40:17;;;;;;;22.58;11.55;;;;;;;;;;3367015;42;20087;-60
2022/08/09 02:42:45;;;;;;;24.85;10.73;;;;;;;;;;3375143;42;20504;-60
2022/08/09 02:45:21;;;;;;;18.45;11.07;;;;;;;;;;3361808;42;20524;-60
2022/08/09 02:47:47;;;;;;;22.33;11.30;;;;;;;;;;3369029;42;20114;-61
2022/08/09 02:50:16;;;;;;;20.90;10.95;;;;;;;;;;3375562;42;20661;-60
2022/08/09 02:52:45;;;;;;;19.17;10.43;;;;;;;;;;3368593;42;20606;-60
2022/08/09 02:55:11;;;;;;;20.35;10.57;;;;;;;;;;3372556;42;20090;-60
2022/08/09 02:57:37;;;;;;;23.52;11.32;;;;;;;;;;3368645;42;20105;-60
2022/08/09 03:00:07;;;;;;;22.33;11.03;;;;;;;;;;3367569;42;20130;-59
2022/08/09 03:02:33;;;;;;;19.85;10.65;;;;;;;;;;3368260;42;20107;-59
2022/08/09 03:04:59;;;;;;;22.67;11.10;;;;;;;;;;3371268;42;20104;-63
2022/08/09 03:07:25;;;;;;;21.23;11.18;;;;;;;;;;3359123;42;20192;-60
2022/08/09 03:09:51;;;;;;;21.67;10.57;;;;;;;;;;3371490;42;20511;-60
2022/08/09 03:12:17;;;;;;;23.50;11.87;;;;;;;;;;3367872;42;20282;-61
2022/08/09 03:14:43;;;;;;;25.15;12.15;;;;;;;;;;3360686;42;20125;-60
2022/08/09 03:17:09;;;;;;;19.63;11.27;;;;;;;;;;3375894;42;20485;-59
2022/08/09 03:19:35;;;;;;;24.83;11.52;;;;;;;;;;3366897;42;20109;-59
2022/08/09 03:22:01;;;;;;;21.40;11.45;;;;;;;;;;3373831;42;20469;-61
2022/08/09 03:24:27;;;;;;;18.73;11.33;;;;;;;;;;3373942;42;20099;-60
2022/08/09 03:26:53;;;;;;;20.88;10.85;;;;;;;;;;3365819;42;20094;-59
2022/08/09 03:29:19;;;;;;;20.00;11.55;;;;;;;;;;3375818;42;20099;-62
2022/08/09 03:31:45;;;;;;;20.63;11.07;;;;;;;;;;3360717;42;20517;-61
2022/08/09 03:34:11;;;;;;;22.17;11.70;;;;;;;;;;3366990;42;20822;-60
2022/08/09 03:36:37;;;;;;;19.70;10.70;;;;;;;;;;3360741;42;20403;-60
2022/08/09 03:39:04;;;;;;;21.40;10.75;;;;;;;;;;3369028;42;20578;-60
2022/08/09 03:41:30;;;;;;;19.80;11.88;;;;;;;;;;3373817;42;20654;-61
2022/08/09 03:43:56;;;;;;;21.35;12.07;;;;;;;;;;3372136;42;20098;-62
2022/08/09 03:46:22;;;;;;;21.67;10.93;;;;;;;;;;3375096;42;20101;-61
2022/08/09 03:48:51;;;;;;;17.43;11.07;;;;;;;;;;3375282;42;20290;-59
2022/08/09 03:51:17;;;;;;;20.25;11.32;;;;;;;;;;3368228;42;20107;-61
2022/08/09 03:53:43;;;;;;;20.80;11.57;;;;;;;;;;3361960;42;20111;-60
2022/08/09 03:56:09;;;;;;;18.85;10.75;;;;;;;;;;3360693;42;20117;-60
2022/08/09 03:58:35;;;;;;;20.92;11.43;;;;;;;;;;3368084;42;20287;-60
2022/08/09 04:01:02;;;;;;;17.43;11.30;;;;;;;;;;3364794;42;20094;-61
2022/08/09 04:03:28;;;;;;;17.55;10.85;;;;;;;;;;3367902;42;20151;-60
2022/08/09 04:05:54;;;;;;;30.10;12.30;;;;;;;;;;3368251;42;20106;-62
2022/08/09 04:08:20;;;;;;;21.75;11.32;;;;;;;;;;3375647;42;20173;-61
2022/08/09 04:10:46;;;;;;;19.87;10.83;;;;;;;;;;3375263;42;20156;-60
2022/08/09 04:13:12;;;;;;;21.27;10.97;;;;;;;;;;3368122;42;20309;-59
2022/08/09 04:15:38;;;;;;;21.88;11.15;;;;;;;;;;3373426;42;20496;-60
2022/08/09 04:18:04;;;;;;;21.80;11.27;;;;;;;;;;3378637;42;20090;-60
2022/08/09 04:20:30;;;;;;;20.83;11.85;;;;;;;;;;3374516;42;20141;-61
2022/08/09 04:22:57;;;;;;;21.07;11.20;;;;;;;;;;3374523;42;20103;-59
2022/08/09 04:25:23;;;;;;;18.33;11.20;;;;;;;;;;3373401;42;20303;-60
2022/08/09 04:27:49;;;;;;;19.20;11.45;;;;;;;;;;3371532;42;20110;-60
2022/08/09 04:30:18;;;;;;;21.42;11.25;;;;;;;;;;3374900;42;20086;-60
2022/08/09 04:32:44;;;;;;;23.40;11.07;;;;;;;;;;3375441;42;20623;-61
2022/08/09 04:35:11;;;;;;;20.70;11.40;;;;;;;;;;3373913;42;20094;-60
2022/08/09 04:37:37;;;;;;;16.43;10.70;;;;;;;;;;3375360;42;20095;-59
2022/08/09 04:40:04;;;;;;;19.63;11.15;;;;;;;;;;3375485;42;20245;-61
2022/08/09 04:42:31;;;;;;;18.23;11.13;;;;;;;;;;3375315;42;20079;-60
2022/08/09 04:44:58;;;;;;;18.08;10.90;;;;;;;;;;3374496;42;20096;-60
2022/08/09 04:47:24;;;;;;;17.10;10.68;;;;;;;;;;3374082;42;20103;-61
2022/08/09 04:49:50;;;;;;;18.40;11.03;;;;;;;;;;3372687;42;20549;-61
2022/08/09 04:52:16;;;;;;;19.58;10.43;;;;;;;;;;3373661;42;20139;-60
2022/08/09 04:54:43;;;;;;;21.67;10.48;;;;;;;;;;3373814;42;20150;-61
2022/08/09 04:57:10;;;;;;;18.70;10.73;;;;;;;;;;3374886;42;20109;-60
2022/08/09 04:59:36;;;;;;;16.67;10.95;;;;;;;;;;3368297;42;20117;-60
2022/08/09 05:02:02;;;;;;;25.67;11.67;;;;;;;;;;3374913;42;20738;-62
2022/08/09 05:04:28;;;;;;;16.95;10.68;;;;;;;;;;3374784;42;20133;-61
2022/08/09 05:06:54;;;;;;;18.73;10.50;;;;;;;;;;3373446;42;20158;-61
2022/08/09 05:09:20;;;;;;;17.63;9.88;;;;;;;;;;3382093;42;20121;-61
2022/08/09 05:11:46;;;;;;;16.17;9.97;;;;;;;;;;3367306;42;20101;-62
2022/08/09 05:14:12;;;;;;;18.17;10.00;;;;;;;;;;3374817;42;20302;-60
2022/08/09 05:16:38;;;;;;;14.63;10.25;;;;;;;;;;3374803;42;20106;-61
2022/08/09 05:19:04;;;;;;;15.52;9.82;;;;;;;;;;3374840;42;20086;-60
2022/08/09 05:21:30;;;;;;;18.55;9.57;;;;;;;;;;3374127;42;20270;-60
2022/08/09 05:23:57;;;;;;;17.42;10.00;;;;;;;;;;3367681;42;20103;-61
2022/08/09 05:26:23;;;;;;;14.87;9.67;;;;;;;;;;3373444;42;20102;-60
2022/08/09 05:28:49;;;;;;;21.00;10.63;;;;;;;;;;3378609;42;20097;-61
2022/08/09 05:31:16;;;;;;;18.67;10.45;;;;;;;;;;3373638;42;20106;-61
2022/08/09 05:33:42;;;;;;;15.73;9.27;;;;;;;;;;3379822;42;20596;-60
2022/08/09 05:36:08;;;;;;;26.60;10.50;;;;;;;;;;3373504;42;20556;-61
2022/08/09 05:38:34;;;;;;;18.37;10.50;;;;;;;;;;3379402;42;20165;-60
2022/08/09 05:41:00;;;;;;;15.77;10.13;;;;;;;;;;3367321;42;20102;-60
2022/08/09 05:43:26;;;;;;;16.52;9.70;;;;;;;;;;3374148;42;20091;-59
2022/08/09 05:45:52;;;;;;;16.10;9.90;;;;;;;;;;3374660;42;20158;-61
2022/08/09 05:48:18;;;;;;;16.23;10.80;;;;;;;;;;3374923;42;20538;-60
2022/08/09 05:50:45;;;;;;;20.33;10.20;;;;;;;;;;3374642;42;20328;-61
2022/08/09 05:53:11;;;;;;;19.02;10.32;;;;;;;;;;3374650;42;20188;-61
2022/08/09 05:55:37;;;;;;;19.15;11.20;;;;;;;;;;3373978;42;20574;-61
2022/08/09 05:58:03;;;;;;;16.63;10.55;;;;;;;;;;3372229;42;20153;-61
2022/08/09 06:00:30;;;;;;;17.80;10.07;;;;;;;;;;3373676;42;20101;-61
2022/08/09 06:02:57;;;;;;;18.10;9.87;;;;;;;;;;3370301;42;20780;-60
2022/08/09 06:05:25;;;;;;;14.48;9.00;;;;;;;;;;3370954;42;20137;-61
2022/08/09 06:07:50;;;;;;;14.60;10.05;;;;;;;;;;3365980;42;20175;-60
2022/08/09 06:10:17;;;;;;;13.95;9.27;;;;;;;;;;3372881;42;20158;-59
2022/08/09 06:12:43;;;;;;;14.57;9.43;;;;;;;;;;3380531;42;20094;-59
2022/08/09 06:15:09;;;;;;;15.40;9.88;;;;;;;;;;3372810;42;20099;-63
2022/08/09 06:17:35;;;;;;;14.88;9.63;;;;;;;;;;3372894;42;20094;-61
2022/08/09 06:20:01;;;;;;;15.20;9.00;;;;;;;;;;3371717;42;20090;-61
2022/08/09 06:22:28;;;;;;;13.77;7.72;;;;;;;;;;3381331;42;20134;-60
2022/08/09 06:24:54;;;;;;;14.30;7.57;;;;;;;;;;3374065;42;20157;-60
2022/08/09 06:27:20;;;;;;;12.82;8.55;;;;;;;;;;3372986;42;20159;-59
2022/08/09 06:29:46;;;;;;;14.85;8.15;;;;;;;;;;3373826;42;20572;-59
2022/08/09 06:32:12;;;;;;;14.18;8.73;;;;;;;;;;3374324;42;20099;-59
2022/08/09 06:34:38;;;;;;;17.23;9.53;;;;;;;;;;3372497;42;20102;-59
2022/08/09 06:37:05;;;;;;;17.30;9.05;;;;;;;;;;3368813;42;20559;-61
2022/08/09 06:39:31;;;;;;;14.00;8.93;;;;;;;;;;3374427;42;20098;-60
2022/08/09 06:41:57;;;;;;;16.60;9.27;;;;;;;;;;3366853;42;20190;-59
2022/08/09 06:44:23;;;;;;;15.95;10.15;;;;;;;;;;3374898;42;20130;-59
2022/08/09 06:46:50;;;;;;;16.10;10.37;;;;;;;;;;3376095;42;20095;-58
2022/08/09 06:49:16;;;;;;;16.35;10.50;;;;;;;;;;3376146;42;20118;-59
2022/08/09 06:51:42;;;;;;;20.30;11.15;;;;;;;;;;3375556;42;20103;-60
2022/08/09 06:54:08;;;;;;;20.52;11.43;;;;;;;;;;3373421;42;20184;-58
2022/08/09 06:56:34;;;;;;;25.95;13.50;;;;;;;;;;3375918;42;20523;-59
2022/08/09 06:59:00;;;;;;;28.60;12.93;;;;;;;;;;3375933;42;20090;-59
2022/08/09 07:01:27;;;;;;;21.92;11.88;;;;;;;;;;3374599;42;20125;-58
2022/08/09 07:03:53;;;;;;;17.45;9.80;;;;;;;;;;3375732;42;20139;-58
2022/08/09 07:06:19;;;;;;;17.77;9.82;;;;;;;;;;3374370;42;20103;-59
2022/08/09 07:08:45;;;;;;;17.75;10.05;;;;;;;;;;3368225;42;20086;-59
2022/08/09 07:11:11;;;;;;;21.00;10.87;;;;;;;;;;3366774;42;20099;-59
2022/08/09 07:13:37;;;;;;;20.35;10.93;;;;;;;;;;3378757;42;20143;-59
2022/08/09 07:16:03;;;;;;;21.02;12.02;;;;;;;;;;3366830;42;20142;-58
2022/08/09 07:18:29;;;;;;;18.83;10.68;;;;;;;;;;3373163;42;20110;-60
2022/08/09 07:20:55;;;;;;;16.33;9.95;;;;;;;;;;3375601;42;20133;-59
2022/08/09 07:23:21;;;;;;;16.58;9.88;;;;;;;;;;3375699;42;20094;-58
2022/08/09 07:25:47;;;;;;;19.40;9.68;;;;;;;;;;3373969;42;20504;-59
2022/08/09 07:28:13;;;;;;;13.10;9.35;;;;;;;;;;3379969;42;20161;-60
2022/08/09 07:30:39;;;;;;;16.48;9.43;;;;;;;;;;3374708;42;20087;-60
2022/08/09 07:33:05;;;;;;;15.80;9.03;;;;;;;;;;3372484;42;20192;-59
2022/08/09 07:35:31;;;;;;;13.45;8.65;;;;;;;;;;3375543;42;20125;-59
2022/08/09 07:37:57;;;;;;;15.02;8.43;;;;;;;;;;3375514;42;20102;-59
2022/08/09 07:40:23;;;;;;;13.85;8.00;;;;;;;;;;3374825;42;20169;-59
2022/08/09 07:42:51;;;;;;;17.83;8.20;;;;;;;;;;3375457;42;20205;-59
2022/08/09 07:45:24;;;;;;;14.90;8.10;;;;;;;;;;3368055;42;20098;-60
2022/08/09 07:47:51;;;;;;;11.38;6.72;;;;;;;;;;3375407;42;20144;-60
2022/08/09 07:50:21;;;;;;;11.65;6.68;;;;;;;;;;3369438;42;20097;-59
2022/08/09 07:52:47;;;;;;;10.95;7.00;;;;;;;;;;3375537;42;20103;-61
2022/08/09 07:55:14;;;;;;;11.40;6.78;;;;;;;;;;3368253;42;20572;-60
2022/08/09 07:57:40;;;;;;;11.60;7.00;;;;;;;;;;3367433;42;20146;-59
2022/08/09 08:00:06;;;;;;;10.38;6.72;;;;;;;;;;3373944;42;20142;-60
2022/08/09 08:02:32;;;;;;;10.02;6.55;;;;;;;;;;3366013;42;20086;-59
2022/08/09 08:04:58;;;;;;;11.43;7.10;;;;;;;;;;3374936;42;20098;-59
2022/08/09 08:07:24;;;;;;;10.90;7.22;;;;;;;;;;3372726;42;20114;-60
2022/08/09 08:09:51;;;;;;;11.43;6.60;;;;;;;;;;3374812;42;20140;-60
2022/08/09 08:12:18;;;;;;;15.32;6.75;;;;;;;;;;3373836;42;20103;-59
2022/08/09 08:14:44;;;;;;;12.02;7.07;;;;;;;;;;3373604;42;20091;-60
2022/08/09 08:17:10;;;;;;;10.38;7.03;;;;;;;;;;3375602;42;20540;-60
2022/08/09 08:19:36;;;;;;;12.37;7.20;;;;;;;;;;3375310;42;20169;-59
2022/08/09 08:22:03;;;;;;;10.87;6.47;;;;;;;;;;3373727;42;20307;-60
2022/08/09 08:24:29;;;;;;;12.73;7.07;;;;;;;;;;3375407;42;20094;-59
2022/08/09 08:26:55;;;;;;;10.75;6.60;;;;;;;;;;3373445;42;20107;-59
2022/08/09 08:29:21;;;;;;;12.25;7.80;;;;;;;;;;3372207;42;20106;-59
2022/08/09 08:31:47;;;;;;;10.98;6.93;;;;;;;;;;3360557;42;20102;-59
2022/08/09 08:34:13;;;;;;;12.03;7.23;;;;;;;;;;3375368;42;20099;-60
2022/08/09 08:36:39;;;;;;;11.25;7.18;;;;;;;;;;3373412;42;20134;-58
2022/08/09 08:39:05;;;;;;;10.80;6.85;;;;;;;;;;3380442;42;20113;-57
2022/08/09 08:41:31;;;;;;;11.82;6.95;;;;;;;;;;3375051;42;20154;-59
2022/08/09 08:43:57;;;;;;;11.88;6.90;;;;;;;;;;3372107;42;20177;-60
2022/08/09 08:46:25;;;;;;;11.23;7.10;;;;;;;;;;3375885;42;20186;-59
2022/08/09 08:48:52;;;;;;;13.55;6.80;;;;;;;;;;3375045;42;20106;-58
2022/08/09 08:51:18;;;;;;;13.63;6.53;;;;;;;;;;3368720;42;20164;-59
2022/08/09 08:53:44;;;;;;;11.00;6.90;;;;;;;;;;3374681;42;20090;-58
2022/08/09 08:56:10;;;;;;;11.77;7.33;;;;;;;;;;3373214;42;20102;-59
2022/08/09 08:58:36;;;;;;;13.82;6.97;;;;;;;;;;3372956;42;20695;-60
2022/08/09 09:01:02;;;;;;;11.98;7.13;;;;;;;;;;3357538;42;20614;-60
2022/08/09 09:03:32;;;;;;;10.77;7.43;;;;;;;;;;3367561;42;20098;-58
2022/08/09 09:05:59;;;;;;;12.98;7.03;;;;;;;;;;3373668;42;20125;-57
2022/08/09 09:08:25;;;;;;;10.53;6.83;;;;;;;;;;3366717;42;20555;-59
2022/08/09 09:10:51;;;;;;;9.60;6.60;;;;;;;;;;3367057;42;20573;-59
2022/08/09 09:13:17;;;;;;;10.35;6.93;;;;;;;;;;3366325;42;20162;-60
2022/08/09 09:15:43;;;;;;;11.30;6.97;;;;;;;;;;3357949;42;20642;-62
2022/08/09 09:18:15;;;;;;;9.80;7.20;;;;;;;;;;3365028;42;20173;-59
2022/08/09 09:20:42;;;;;;;10.68;6.97;;;;;;;;;;3374230;42;20603;-58
2022/08/09 09:23:08;;;;;;;13.18;7.70;;;;;;;;;;3374543;42;20107;-58
2022/08/09 09:25:42;;;;;;;11.85;6.90;;;;;;;;;;3367559;42;20138;-59
2022/08/09 09:28:10;;;;;;;10.82;6.78;;;;;;;;;;3374726;42;20094;-58
2022/08/09 09:30:56;;;;;;;12.77;6.93;;;;;;;;;;3374713;42;20083;-59
2022/08/09 09:33:35;;;;;;;10.68;6.90;;;;;;;;;;3381874;42;20094;-58
2022/08/09 09:36:01;;;;;;;14.10;7.22;;;;;;;;;;3382173;42;20090;-59
2022/08/09 09:38:44;;;;;;;13.05;6.65;;;;;;;;;;3374634;42;20569;-59
2022/08/09 09:41:22;;;;;;;11.18;6.40;;;;;;;;;;3374578;42;20110;-59
2022/08/09 09:43:49;;;;;;;13.50;6.90;;;;;;;;;;3381908;42;20142;-59
2022/08/09 09:46:15;;;;;;;11.93;6.72;;;;;;;;;;3374570;42;20568;-59
2022/08/09 09:49:17;;;;;;;10.60;6.70;;;;;;;;;;3374722;42;20109;-59
2022/08/09 09:51:43;;;;;;;11.70;6.55;;;;;;;;;;3370610;42;20090;-58
2022/08/09 09:54:21;;;;;;;11.27;7.03;;;;;;;;;;3374794;42;20109;-59
2022/08/09 09:56:48;;;;;;;16.57;6.93;;;;;;;;;;3373763;42;20293;-59
2022/08/09 09:59:32;;;;;;;10.82;7.10;;;;;;;;;;3372895;42;20118;-59
2022/08/09 10:01:58;;;;;;;11.68;7.10;;;;;;;;;;3377033;42;20603;-59
2022/08/09 10:04:24;;;;;;;12.63;7.60;;;;;;;;;;3377028;42;20095;-59
2022/08/09 10:06:50;;;;;;;13.27;7.00;;;;;;;;;;3373350;42;20170;-59
2022/08/09 10:09:16;;;;;;;13.70;7.27;;;;;;;;;;3374515;42;20453;-60
2022/08/09 10:11:42;;;;;;;12.55;6.72;;;;;;;;;;3373112;42;20651;-59
2022/08/09 10:14:25;;;;;;;10.85;6.93;;;;;;;;;;3381168;42;20111;-59
2022/08/09 10:16:51;;;;;;;11.35;6.93;;;;;;;;;;3359220;42;20168;-61
2022/08/09 10:19:17;;;;;;;17.33;7.03;;;;;;;;;;3368179;42;20101;-60
2022/08/09 10:21:46;;;;;;;13.80;7.10;;;;;;;;;;3374920;42;20087;-58
2022/08/09 10:24:13;;;;;;;12.43;7.07;;;;;;;;;;3381054;42;20472;-60
2022/08/09 10:26:40;;;;;;;11.45;6.90;;;;;;;;;;3376267;42;20200;-59
2022/08/09 10:29:06;;;;;;;14.50;7.70;;;;;;;;;;3361488;42;20103;-59
2022/08/09 10:31:32;;;;;;;12.97;7.97;;;;;;;;;;3368139;42;20106;-59
2022/08/09 10:33:58;;;;;;;12.80;8.55;;;;;;;;;;3361270;42;20566;-59
2022/08/09 10:36:24;;;;;;;14.18;8.70;;;;;;;;;;3376306;42;20102;-59
2022/08/09 10:38:50;;;;;;;16.65;8.45;;;;;;;;;;3376070;42;20083;-60
2022/08/09 10:41:17;;;;;;;12.15;8.23;;;;;;;;;;3375988;42;20103;-60
2022/08/09 10:43:47;;;;;;;14.53;8.53;;;;;;;;;;3368624;42;20115;-60
2022/08/09 10:46:32;;;;;;;15.73;8.43;;;;;;;;;;3375931;42;20652;-60
2022/08/09 10:49:29;;;;;;;15.07;8.82;;;;;;;;;;3375959;42;20095;-58
2022/08/09 10:51:58;;;;;;;15.00;9.25;;;;;;;;;;3375789;42;20083;-59
2022/08/09 10:54:25;;;;;;;14.85;8.63;;;;;;;;;;3375950;42;20079;-59
2022/08/09 10:57:07;;;;;;;13.70;8.23;;;;;;;;;;3376052;42;20098;-59
2022/08/09 10:59:34;;;;;;;13.25;9.10;;;;;;;;;;3367654;42;20517;-58
2022/08/09 11:02:00;;;;;;;13.77;8.82;;;;;;;;;;3376370;42;20611;-59
2022/08/09 11:04:27;;;;;;;15.18;8.73;;;;;;;;;;3375901;42;20086;-60
2022/08/09 11:07:02;;;;;;;14.85;9.20;;;;;;;;;;3375597;42;20151;-60
2022/08/09 11:09:37;;;;;;;15.67;8.03;;;;;;;;;;3384337;42;20185;-60
2022/08/09 11:12:13;;;;;;;13.15;8.80;;;;;;;;;;3366665;42;20533;-60
2022/08/09 11:14:55;;;;;;;14.93;9.40;;;;;;;;;;3376116;42;20097;-58
2022/08/09 11:17:21;;;;;;;14.05;8.70;;;;;;;;;;3376814;42;20125;-59
2022/08/09 11:19:55;;;;;;;15.55;9.10;;;;;;;;;;3376849;42;20146;-60
2022/08/09 11:22:32;;;;;;;16.97;9.03;;;;;;;;;;3374436;42;20122;-58
2022/08/09 11:25:04;;;;;;;19.00;10.63;;;;;;;;;;3375499;42;20159;-60
2022/08/09 11:27:38;;;;;;;18.02;11.52;;;;;;;;;;3368210;42;20087;-59
2022/08/09 11:30:11;;;;;;;15.75;10.70;;;;;;;;;;3382843;42;20105;-59
2022/08/09 11:32:44;;;;;;;16.05;9.27;;;;;;;;;;3368304;42;20611;-58
2022/08/09 11:35:15;;;;;;;16.10;9.63;;;;;;;;;;3374411;42;20141;-57
2022/08/09 11:37:42;;;;;;;14.40;9.63;;;;;;;;;;3375731;42;20162;-60
2022/08/09 11:40:10;;;;;;;15.93;9.88;;;;;;;;;;3370942;42;20098;-59
2022/08/09 11:42:38;;;;;;;16.08;9.60;;;;;;;;;;3374252;42;20409;-60
2022/08/09 11:45:04;;;;;;;16.10;9.50;;;;;;;;;;3380772;42;20146;-60
2022/08/09 11:47:46;;;;;;;17.60;9.73;;;;;;;;;;3368223;42;20087;-60
2022/08/09 11:50:12;;;;;;;14.13;9.82;;;;;;;;;;3366849;42;20115;-59
2022/08/09 11:53:03;;;;;;;15.20;9.27;;;;;;;;;;3375583;42;20101;-59
2022/08/09 11:55:39;;;;;;;17.67;9.85;;;;;;;;;;3369871;42;20099;-59
2022/08/09 11:58:14;;;;;;;18.83;9.20;;;;;;;;;;3375449;42;20117;-59
2022/08/09 12:01:10;;;;;;;14.63;9.47;;;;;;;;;;3374835;42;20102;-59
2022/08/09 12:03:36;;;;;;;17.95;8.80;;;;;;;;;;3378146;42;20094;-59
2022/08/09 12:06:10;;;;;;;20.00;9.20;;;;;;;;;;3382909;42;20597;-58
2022/08/09 12:08:36;;;;;;;13.65;8.80;;;;;;;;;;3375510;42;20584;-59
2022/08/09 12:11:02;;;;;;;17.38;9.02;;;;;;;;;;3366789;42;20083;-59
2022/08/09 12:13:33;;;;;;;17.87;9.00;;;;;;;;;;3374345;42;20098;-59
2022/08/09 12:16:00;;;;;;;16.83;9.70;;;;;;;;;;3375185;42;20106;-59
2022/08/09 12:18:26;;;;;;;15.43;9.25;;;;;;;;;;3374696;42;20168;-60
2022/08/09 12:20:52;;;;;;;27.98;11.32;;;;;;;;;;3375084;42;20106;-59
2022/08/09 12:23:18;;;;;;;16.15;8.95;;;;;;;;;;3367741;42;20142;-59
2022/08/09 12:25:48;;;;;;;16.73;8.80;;;;;;;;;;3375231;42;20126;-60
2022/08/09 12:28:16;;;;;;;18.88;9.40;;;;;;;;;;3375273;42;20667;-58
2022/08/09 12:30:42;;;;;;;18.83;9.10;;;;;;;;;;3382275;42;20604;-60
2022/08/09 12:33:09;;;;;;;14.05;8.65;;;;;;;;;;3375053;42;20117;-59
2022/08/09 12:35:35;;;;;;;13.45;8.73;;;;;;;;;;3367711;42;20557;-59
2022/08/09 12:38:20;;;;;;;12.67;8.80;;;;;;;;;;3374971;42;20466;-58
2022/08/09 12:40:47;;;;;;;18.25;8.68;;;;;;;;;;3378708;42;20099;-59
2022/08/09 12:43:14;;;;;;;15.52;7.93;;;;;;;;;;3374444;42;20130;-59
2022/08/09 12:45:40;;;;;;;13.98;8.00;;;;;;;;;;3369645;42;20138;-59
2022/08/09 12:48:08;;;;;;;16.38;8.20;;;;;;;;;;3372400;42;20126;-59
2022/08/09 12:50:36;;;;;;;13.83;7.87;;;;;;;;;;3369750;42;20106;-60
2022/08/09 12:53:02;;;;;;;13.88;7.90;;;;;;;;;;3372798;42;20229;-59
2022/08/09 12:55:30;;;;;;;14.60;7.30;;;;;;;;;;3382747;42;20104;-59
2022/08/09 12:57:56;;;;;;;11.45;7.13;;;;;;;;;;3374834;42;20098;-59
2022/08/09 13:00:34;;;;;;;12.93;7.07;;;;;;;;;;3374737;42;20086;-60
2022/08/09 13:03:02;;;;;;;13.47;7.80;;;;;;;;;;3373205;42;20213;-59
2022/08/09 13:05:44;;;;;;;13.98;7.10;;;;;;;;;;3380460;42;20564;-59
2022/08/09 13:08:14;;;;;;;12.02;6.75;;;;;;;;;;3374848;42;20360;-58
2022/08/09 13:10:46;;;;;;;13.38;6.95;;;;;;;;;;3374792;42;20110;-59
2022/08/09 13:13:13;;;;;;;12.00;6.78;;;;;;;;;;3374634;42;20118;-60
2022/08/09 13:15:58;;;;;;;14.17;7.17;;;;;;;;;;3382228;42;20114;-59
2022/08/09 13:18:25;;;;;;;11.65;7.10;;;;;;;;;;3378915;42;20110;-59
2022/08/09 13:20:51;;;;;;;10.90;7.45;;;;;;;;;;3370349;42;20125;-60
2022/08/09 13:23:18;;;;;;;12.82;7.22;;;;;;;;;;3381933;42;20101;-59
2022/08/09 13:25:45;;;;;;;10.57;6.82;;;;;;;;;;3367665;42;20102;-57
2022/08/09 13:28:14;;;;;;;11.77;6.73;;;;;;;;;;3374029;42;20125;-57
2022/08/09 13:30:44;;;;;;;13.68;7.05;;;;;;;;;;3374898;42;20531;-59
2022/08/09 13:33:11;;;;;;;13.05;7.10;;;;;;;;;;3367191;42;20117;-59
2022/08/09 13:35:37;;;;;;;11.60;7.20;;;;;;;;;;3367065;42;20110;-59
2022/08/09 13:38:03;;;;;;;12.65;6.88;;;;;;;;;;3373075;42;20151;-58
2022/08/09 13:40:29;;;;;;;12.30;6.77;;;;;;;;;;3378708;42;20097;-60
2022/08/09 13:42:56;;;;;;;11.65;6.80;;;;;;;;;;3373199;42;20095;-58
2022/08/09 13:45:22;;;;;;;11.75;6.57;;;;;;;;;;3371697;42;20185;-60
2022/08/09 13:47:48;;;;;;;12.23;6.72;;;;;;;;;;3381744;42;20114;-60
2022/08/09 13:50:15;;;;;;;9.30;6.17;;;;;;;;;;3374518;42;20106;-60
2022/08/09 13:52:42;;;;;;;13.55;6.82;;;;;;;;;;3381709;42;20087;-59
2022/08/09 13:55:08;;;;;;;13.02;6.93;;;;;;;;;;3373042;42;20581;-60
2022/08/09 13:57:41;;;;;;;11.75;6.20;;;;;;;;;;3364878;42;20083;-59
2022/08/09 14:00:17;;;;;;;10.48;6.80;;;;;;;;;;3374661;42;20495;-59
2022/08/09 14:02:49;;;;;;;13.60;7.73;;;;;;;;;;3375010;42;20087;-58
2022/08/09 14:05:20;;;;;;;12.35;6.53;;;;;;;;;;3367632;42;20167;-59
2022/08/09 14:07:51;;;;;;;13.38;6.82;;;;;;;;;;3373755;42;20091;-59
2022/08/09 14:10:22;;;;;;;10.90;6.75;;;;;;;;;;3374497;42;20519;-60
2022/08/09 14:12:54;;;;;;;11.32;6.93;;;;;;;;;;3374911;42;20229;-59
2022/08/09 14:15:25;;;;;;;11.80;7.43;;;;;;;;;;3374659;42;20113;-60
2022/08/09 14:17:56;;;;;;;11.52;7.32;;;;;;;;;;3372803;42;20091;-59
2022/08/09 14:20:29;;;;;;;13.90;7.18;;;;;;;;;;3374080;42;20091;-60
2022/08/09 14:23:00;;;;;;;11.93;7.13;;;;;;;;;;3375445;42;20189;-59
2022/08/09 14:25:31;;;;;;;13.60;7.38;;;;;;;;;;3373078;42;20165;-61
2022/08/09 14:28:02;;;;;;;12.80;7.30;;;;;;;;;;3370527;42;20146;-60
2022/08/09 14:30:34;;;;;;;11.70;6.97;;;;;;;;;;3374109;42;20099;-60